Time;durP1;ratioP1;P1;durP2;ratioP2;P2;SDS_P1;SDS_P2;PMS_P1;PMS_P2;Temp;Humidity;BMP_temperature;BMP_pressure;BME280_temperature;BME280_humidity;BME280_pressure;Samples;Min_cycle;Max_cycle;Signal;HPM_P1;HPM_P2
2021/10/06 00:01:02;;;;;;;15.18;12.98;;;;;;;7.00;75.08;101501.77;1683411;85;21154;-70
2021/10/06 00:03:30;;;;;;;18.00;12.98;;;;;;;6.91;75.40;101497.48;1688842;83;20963;-70
2021/10/06 00:05:56;;;;;;;20.88;13.25;;;;;;;6.88;75.83;101500.53;1689016;83;20989;-71
2021/10/06 00:08:22;;;;;;;21.25;14.60;;;;;;;6.84;76.01;101502.74;1689002;83;20951;-72
2021/10/06 00:10:49;;;;;;;28.07;14.70;;;;;;;6.83;76.23;101497.06;1712120;83;21011;-70
2021/10/06 00:13:15;;;;;;;19.75;12.58;;;;;;;6.83;76.33;101501.58;1657708;86;21079;-71
2021/10/06 00:15:44;;;;;;;25.35;14.53;;;;;;;6.88;76.39;101504.55;1685066;85;20997;-69
2021/10/06 00:18:12;;;;;;;18.70;13.08;;;;;;;6.85;76.51;101501.73;1683754;85;21014;-72
2021/10/06 00:20:38;;;;;;;17.12;13.80;;;;;;;6.85;76.56;101500.91;1685088;85;21043;-71
2021/10/06 00:23:05;;;;;;;14.75;12.07;;;;;;;6.82;76.71;101498.57;1672086;85;21109;-71
2021/10/06 00:25:32;;;;;;;18.55;11.68;;;;;;;6.77;76.83;101500.45;1683270;84;21019;-71
2021/10/06 00:27:59;;;;;;;15.50;12.28;;;;;;;6.77;77.01;101499.11;1693625;83;20987;-70
2021/10/06 00:30:25;;;;;;;13.65;11.48;;;;;;;6.77;77.04;101497.78;1695462;83;21014;-71
2021/10/06 00:32:51;;;;;;;14.65;12.63;;;;;;;6.82;77.13;101500.74;1683537;85;21534;-71
2021/10/06 00:35:18;;;;;;;16.05;12.35;;;;;;;6.87;77.10;101506.88;1688893;83;21030;-70
2021/10/06 00:37:44;;;;;;;16.07;11.03;;;;;;;6.87;77.10;101510.89;1711236;83;21973;-72
2021/10/06 00:40:11;;;;;;;17.42;12.00;;;;;;;6.86;77.11;101510.56;1687633;83;20954;-69
2021/10/06 00:42:39;;;;;;;18.48;13.13;;;;;;;6.83;77.15;101502.91;1710396;83;21520;-70
2021/10/06 00:45:06;;;;;;;18.35;12.53;;;;;;;6.80;77.15;101502.78;1681325;83;21519;-69
2021/10/06 00:47:32;;;;;;;16.45;11.57;;;;;;;6.80;77.31;101505.96;1640869;83;21163;-69
2021/10/06 00:49:59;;;;;;;17.40;11.90;;;;;;;6.77;77.28;101504.97;1683668;83;22126;-71
2021/10/06 00:52:25;;;;;;;17.60;12.10;;;;;;;6.71;77.34;101501.20;1689254;83;21034;-71
2021/10/06 00:54:51;;;;;;;15.63;11.73;;;;;;;6.69;77.51;101502.38;1689311;83;21029;-67
2021/10/06 00:57:18;;;;;;;20.85;13.68;;;;;;;6.63;77.99;101510.60;1711977;83;20954;-70
2021/10/06 00:59:44;;;;;;;17.27;13.08;;;;;;;6.59;77.88;101509.30;1694594;83;21558;-71
2021/10/06 01:02:11;;;;;;;23.73;13.85;;;;;;;6.57;78.15;101513.98;1689218;83;21091;-69
2021/10/06 01:04:38;;;;;;;22.62;13.43;;;;;;;6.53;78.26;101508.67;1713429;82;20947;-73
2021/10/06 01:07:04;;;;;;;22.40;13.65;;;;;;;6.54;78.37;101518.36;1695222;83;20970;-73
2021/10/06 01:09:31;;;;;;;18.20;11.38;;;;;;;6.53;78.46;101517.53;1696026;83;21034;-72
2021/10/06 01:11:58;;;;;;;20.90;12.68;;;;;;;6.51;78.73;101515.55;1688672;83;21050;-72
2021/10/06 01:14:25;;;;;;;25.88;15.20;;;;;;;6.46;78.83;101516.59;1711596;83;21407;-70
2021/10/06 01:16:52;;;;;;;21.57;11.45;;;;;;;6.43;79.05;101519.60;1711827;83;21022;-73
2021/10/06 01:19:25;;;;;;;22.50;13.45;;;;;;;6.42;79.18;101522.47;1689055;83;20990;-71
2021/10/06 01:21:51;;;;;;;27.35;15.90;;;;;;;6.41;79.21;101512.78;1688901;83;21031;-70
2021/10/06 01:24:18;;;;;;;30.02;17.17;;;;;;;6.42;79.29;101507.77;1715049;83;21008;-70
2021/10/06 01:26:44;;;;;;;22.73;13.80;;;;;;;6.44;79.10;101503.06;1686594;83;21482;-71
2021/10/06 01:29:11;;;;;;;24.82;15.32;;;;;;;6.39;79.04;101503.60;1692226;84;20995;-70
2021/10/06 01:31:37;;;;;;;18.90;13.25;;;;;;;6.38;79.16;101505.94;1697181;84;21070;-72
2021/10/06 01:34:04;;;;;;;25.92;16.00;;;;;;;6.34;79.14;101509.98;1684929;84;21005;-69
2021/10/06 01:36:31;;;;;;;22.25;13.95;;;;;;;6.33;79.28;101507.51;1646169;86;21060;-70
2021/10/06 01:38:57;;;;;;;21.15;13.22;;;;;;;6.35;79.37;101513.48;1697315;84;21892;-71
2021/10/06 01:41:23;;;;;;;19.87;14.13;;;;;;;6.40;79.42;101513.79;1646067;86;21047;-71
2021/10/06 01:43:49;;;;;;;27.95;15.48;;;;;;;6.46;79.45;101514.42;1681320;83;20983;-69
2021/10/06 01:46:17;;;;;;;18.65;13.72;;;;;;;6.49;79.29;101526.08;1687959;83;21713;-67
2021/10/06 01:48:43;;;;;;;18.92;13.50;;;;;;;6.45;79.35;101518.94;1703296;83;21027;-70
2021/10/06 01:51:10;;;;;;;22.90;14.05;;;;;;;6.38;79.40;101524.64;1726231;83;21193;-70
2021/10/06 01:53:38;;;;;;;26.73;15.88;;;;;;;6.32;79.53;101524.55;1726462;81;21014;-69
2021/10/06 01:56:05;;;;;;;21.50;13.30;;;;;;;6.26;79.75;101519.40;1723249;83;21013;-69
2021/10/06 01:58:31;;;;;;;23.55;14.73;;;;;;;6.23;80.01;101517.59;1713660;83;21014;-70
2021/10/06 02:00:58;;;;;;;19.37;13.53;;;;;;;6.21;80.11;101520.43;1701730;83;21089;-69
2021/10/06 02:03:24;;;;;;;21.62;13.22;;;;;;;6.18;80.34;101526.14;1726166;81;22196;-69
2021/10/06 02:05:51;;;;;;;19.30;11.90;;;;;;;6.21;80.54;101523.60;1688155;83;21574;-68
2021/10/06 02:08:17;;;;;;;17.00;12.33;;;;;;;6.28;80.68;101522.73;1673717;84;21055;-69
2021/10/06 02:10:44;;;;;;;15.93;11.50;;;;;;;6.27;80.56;101521.07;1726272;81;21586;-69
2021/10/06 02:13:11;;;;;;;26.17;13.72;;;;;;;6.24;80.57;101524.08;1713664;83;21034;-70
2021/10/06 02:15:37;;;;;;;19.07;14.70;;;;;;;6.22;80.64;101529.28;1695197;83;21075;-70
2021/10/06 02:18:03;;;;;;;22.95;15.93;;;;;;;6.16;80.62;101530.81;1701953;83;21034;-68
2021/10/06 02:20:30;;;;;;;21.57;14.68;;;;;;;6.14;80.74;101534.16;1666016;86;21094;-68
2021/10/06 02:22:56;;;;;;;30.65;17.35;;;;;;;6.16;80.76;101528.64;1695843;84;21012;-69
2021/10/06 02:25:24;;;;;;;27.67;14.23;;;;;;;6.12;80.64;101533.02;1694940;83;21413;-70
2021/10/06 02:27:51;;;;;;;29.50;15.18;;;;;;;6.11;80.68;101536.69;1688828;83;21077;-71
2021/10/06 02:30:17;;;;;;;43.78;16.75;;;;;;;6.09;80.73;101542.69;1689237;83;20966;-70
2021/10/06 02:32:44;;;;;;;34.73;15.75;;;;;;;6.12;80.92;101547.70;1689161;83;21023;-70
2021/10/06 02:35:10;;;;;;;32.10;16.42;;;;;;;6.22;81.02;101545.31;1688471;83;21559;-72
2021/10/06 02:37:38;;;;;;;31.15;15.48;;;;;;;6.23;80.84;101538.97;1673903;85;21587;-69
2021/10/06 02:40:06;;;;;;;20.82;12.37;;;;;;;6.24;80.89;101540.11;1661193;85;22021;-68
2021/10/06 02:42:33;;;;;;;20.90;14.83;;;;;;;6.27;80.88;101541.61;1682975;83;21070;-69
2021/10/06 02:44:59;;;;;;;34.10;16.60;;;;;;;6.20;80.82;101539.30;1667980;83;21006;-69
2021/10/06 02:47:26;;;;;;;20.00;15.25;;;;;;;6.14;80.87;101540.33;1711490;83;21063;-69
2021/10/06 02:49:53;;;;;;;25.75;14.63;;;;;;;6.13;81.06;101544.53;1711713;83;20935;-71
2021/10/06 02:52:19;;;;;;;21.65;13.78;;;;;;;6.14;80.99;101552.34;1707738;83;21146;-71
2021/10/06 02:54:46;;;;;;;27.52;14.95;;;;;;;6.05;80.94;101554.73;1684246;83;21570;-68
2021/10/06 02:57:12;;;;;;;24.23;15.23;;;;;;;5.94;81.08;101559.16;1690703;83;21021;-67
2021/10/06 02:59:39;;;;;;;55.78;29.72;;;;;;;5.87;81.37;101556.00;1689042;83;21023;-69
2021/10/06 03:02:07;;;;;;;42.67;19.95;;;;;;;5.90;81.77;101562.34;1687059;83;21005;-68
2021/10/06 03:04:34;;;;;;;29.65;17.10;;;;;;;5.95;82.02;101562.13;1711652;83;21159;-70
2021/10/06 03:07:00;;;;;;;31.05;16.62;;;;;;;6.06;81.95;101563.09;1662224;85;20978;-68
2021/10/06 03:09:26;;;;;;;36.10;20.40;;;;;;;6.03;81.68;101567.45;1656958;86;21048;-69
2021/10/06 03:11:53;;;;;;;37.17;22.70;;;;;;;6.01;81.83;101568.13;1665611;85;20972;-70
2021/10/06 03:14:19;;;;;;;64.35;36.73;;;;;;;6.03;81.94;101573.30;1681910;85;21022;-71
2021/10/06 03:16:46;;;;;;;68.35;39.80;;;;;;;5.95;81.87;101573.31;1684313;85;21187;-68
2021/10/06 03:19:12;;;;;;;124.12;63.98;;;;;;;5.93;82.05;101576.67;1659036;85;21076;-69
2021/10/06 03:21:38;;;;;;;113.03;58.15;;;;;;;5.85;82.15;101584.16;1660509;85;20970;-69
2021/10/06 03:24:05;;;;;;;100.33;48.65;;;;;;;5.81;82.32;101588.19;1660613;85;21071;-68
2021/10/06 03:26:31;;;;;;;74.75;42.27;;;;;;;5.78;82.52;101590.38;1708726;83;21058;-71
2021/10/06 03:28:58;;;;;;;75.20;39.10;;;;;;;5.74;82.80;101586.39;1688706;83;21879;-69
2021/10/06 03:31:24;;;;;;;60.33;36.25;;;;;;;5.71;83.17;101589.72;1710833;83;20958;-71
2021/10/06 03:33:51;;;;;;;56.30;29.27;;;;;;;5.80;83.37;101593.72;1689417;83;20999;-70
2021/10/06 03:36:17;;;;;;;40.45;24.92;;;;;;;5.83;83.45;101592.03;1691383;83;21551;-70
2021/10/06 03:38:44;;;;;;;33.53;21.95;;;;;;;5.88;83.51;101588.38;1725986;83;21486;-71
2021/10/06 03:41:10;;;;;;;35.10;19.85;;;;;;;5.85;83.27;101588.70;1726414;83;21894;-71
2021/10/06 03:43:36;;;;;;;35.73;21.75;;;;;;;5.83;83.46;101594.70;1688939;83;21077;-70
2021/10/06 03:46:02;;;;;;;49.23;19.87;;;;;;;5.81;83.60;101598.03;1673676;84;21503;-71
2021/10/06 03:48:31;;;;;;;36.35;20.15;;;;;;;5.76;83.60;101591.88;1687937;83;21371;-73
2021/10/06 03:50:57;;;;;;;42.27;20.23;;;;;;;5.74;83.69;101587.23;1651776;84;21101;-73
2021/10/06 03:53:23;;;;;;;30.10;18.67;;;;;;;5.73;83.90;101583.39;1709913;83;21059;-72
2021/10/06 03:55:51;;;;;;;30.88;16.05;;;;;;;5.75;84.23;101584.06;1711999;83;20929;-70
2021/10/06 03:58:17;;;;;;;32.08;18.73;;;;;;;5.77;84.47;101585.54;1710447;82;20983;-74
2021/10/06 04:00:44;;;;;;;33.53;18.15;;;;;;;5.73;84.65;101580.72;1685096;84;21010;-72
2021/10/06 04:03:12;;;;;;;36.58;22.15;;;;;;;5.74;84.83;101591.73;1704800;84;20998;-71
2021/10/06 04:05:39;;;;;;;43.45;17.23;;;;;;;5.68;84.86;101590.08;1661100;84;21031;-73
2021/10/06 04:08:05;;;;;;;45.12;19.17;;;;;;;5.66;85.04;101592.08;1723828;83;20995;-71
2021/10/06 04:10:31;;;;;;;51.28;28.67;;;;;;;5.66;85.28;101593.41;1674381;85;21016;-73
2021/10/06 04:12:58;;;;;;;43.78;20.92;;;;;;;5.63;85.44;101592.92;1709673;83;21061;-71
2021/10/06 04:15:24;;;;;;;31.70;17.07;;;;;;;5.63;85.60;101599.10;1687761;83;21105;-72
2021/10/06 04:17:51;;;;;;;27.10;16.55;;;;;;;5.70;85.79;101597.93;1689192;84;21139;-71
2021/10/06 04:20:17;;;;;;;25.85;15.53;;;;;;;5.73;85.79;101595.41;1679349;83;21114;-71
2021/10/06 04:22:43;;;;;;;23.67;13.38;;;;;;;5.67;85.86;101602.25;1713610;83;21065;-70
2021/10/06 04:25:10;;;;;;;20.62;13.65;;;;;;;5.67;86.12;101607.09;1703957;82;21090;-70
2021/10/06 04:27:37;;;;;;;22.75;14.13;;;;;;;5.65;86.33;101610.45;1669654;85;21121;-70
2021/10/06 04:30:07;;;;;;;32.38;16.02;;;;;;;5.61;86.66;101607.77;1684938;84;20980;-69
2021/10/06 04:32:36;;;;;;;32.00;16.45;;;;;;;5.62;86.94;101610.78;1669455;83;21026;-69
2021/10/06 04:35:03;;;;;;;24.57;15.75;;;;;;;5.70;87.14;101611.28;1695285;84;20962;-70
2021/10/06 04:37:29;;;;;;;26.33;15.75;;;;;;;5.79;87.23;101618.25;1713443;83;21059;-71
2021/10/06 04:39:56;;;;;;;24.80;15.00;;;;;;;5.87;87.22;101620.92;1706194;84;21070;-69
2021/10/06 04:42:24;;;;;;;32.50;18.05;;;;;;;5.90;86.90;101625.91;1699334;84;21571;-70
2021/10/06 04:44:52;;;;;;;30.57;18.07;;;;;;;5.86;86.75;101627.23;1676361;85;20970;-69
2021/10/06 04:47:18;;;;;;;27.50;18.27;;;;;;;5.91;86.91;101630.25;1659400;84;20994;-72
2021/10/06 04:49:44;;;;;;;28.85;15.93;;;;;;;5.90;86.78;101627.25;1706147;84;21069;-69
2021/10/06 04:52:12;;;;;;;22.17;14.78;;;;;;;5.87;86.91;101629.44;1706118;84;21090;-75
2021/10/06 04:54:38;;;;;;;25.02;14.63;;;;;;;5.90;87.17;101630.45;1706145;84;21263;-68
2021/10/06 04:57:04;;;;;;;24.67;15.68;;;;;;;5.90;87.25;101630.45;1681050;84;21672;-68
2021/10/06 04:59:33;;;;;;;24.18;15.10;;;;;;;5.90;87.46;101628.58;1681183;84;21054;-68
2021/10/06 05:02:00;;;;;;;32.65;19.55;;;;;;;5.90;87.52;101639.27;1683904;82;21380;-70
2021/10/06 05:04:28;;;;;;;38.28;20.08;;;;;;;5.89;87.68;101634.11;1677692;85;21083;-68
2021/10/06 05:06:54;;;;;;;35.03;18.05;;;;;;;5.90;87.85;101631.78;1654600;84;21159;-68
2021/10/06 05:09:20;;;;;;;45.67;21.87;;;;;;;5.93;88.18;101635.44;1684562;84;20958;-69
2021/10/06 05:11:47;;;;;;;42.13;19.10;;;;;;;5.95;88.22;101634.73;1670207;84;21015;-69
2021/10/06 05:14:14;;;;;;;27.62;18.07;;;;;;;6.00;88.37;101638.56;1660234;85;21003;-70
2021/10/06 05:16:42;;;;;;;47.93;21.97;;;;;;;6.04;88.41;101642.55;1654120;86;20971;-69
2021/10/06 05:19:12;;;;;;;72.22;25.15;;;;;;;6.09;88.53;101648.74;1703767;83;21931;-68
2021/10/06 05:21:37;;;;;;;45.00;23.47;;;;;;;6.14;88.41;101645.86;1669405;86;21031;-69
2021/10/06 05:24:04;;;;;;;46.18;22.20;;;;;;;6.16;88.34;101652.38;1655437;86;21045;-70
2021/10/06 05:26:32;;;;;;;37.58;21.45;;;;;;;6.19;88.34;101645.34;1684430;85;20955;-69
2021/10/06 05:28:59;;;;;;;33.17;20.23;;;;;;;6.21;88.37;101644.67;1646957;86;20971;-70
2021/10/06 05:31:25;;;;;;;39.03;23.02;;;;;;;6.25;88.51;101647.82;1694989;84;21284;-75
2021/10/06 05:33:51;;;;;;;48.02;24.37;;;;;;;6.27;88.52;101641.31;1684618;83;21010;-69
2021/10/06 05:36:18;;;;;;;42.90;23.42;;;;;;;6.38;88.55;101640.10;1675152;85;21495;-69
2021/10/06 05:38:44;;;;;;;42.98;23.25;;;;;;;6.41;88.34;101643.75;1704281;83;20931;-70
2021/10/06 05:41:10;;;;;;;43.37;23.87;;;;;;;6.44;88.33;101641.55;1714162;83;21047;-70
2021/10/06 05:43:37;;;;;;;39.05;20.52;;;;;;;6.49;88.28;101642.36;1708732;83;21521;-70
2021/10/06 05:46:03;;;;;;;36.53;19.90;;;;;;;6.54;88.40;101644.01;1708870;84;20982;-70
2021/10/06 05:48:30;;;;;;;37.28;18.40;;;;;;;6.61;88.39;101642.81;1712819;83;21006;-69
2021/10/06 05:50:56;;;;;;;23.02;15.40;;;;;;;6.68;88.41;101640.58;1713353;83;21154;-71
2021/10/06 05:53:22;;;;;;;28.15;16.87;;;;;;;6.78;88.34;101653.72;1723649;83;21510;-72
2021/10/06 05:55:49;;;;;;;38.98;19.52;;;;;;;6.82;88.19;101649.18;1712100;83;21478;-70
2021/10/06 05:58:15;;;;;;;30.25;17.00;;;;;;;6.88;88.10;101654.33;1713085;83;20951;-71
2021/10/06 06:00:41;;;;;;;27.17;16.65;;;;;;;6.94;88.09;101654.46;1713626;82;21058;-70
2021/10/06 06:03:09;;;;;;;25.30;16.35;;;;;;;7.05;88.18;101647.03;1681362;84;21079;-72
2021/10/06 06:05:41;;;;;;;33.20;16.35;;;;;;;7.16;88.12;101649.27;1681589;84;21619;-70
2021/10/06 06:08:08;;;;;;;23.30;14.95;;;;;;;7.24;88.06;101651.36;1701243;84;21106;-70
2021/10/06 06:10:35;;;;;;;19.25;13.80;;;;;;;7.35;87.98;101650.11;1698733;84;20962;-69
2021/10/06 06:13:03;;;;;;;18.17;12.50;;;;;;;7.41;87.84;101649.39;1675197;84;21043;-70
2021/10/06 06:15:31;;;;;;;16.90;10.82;;;;;;;7.50;87.75;101646.97;1706037;84;20987;-69
2021/10/06 06:17:57;;;;;;;18.82;13.85;;;;;;;7.60;87.55;101653.40;1670694;85;21095;-69
2021/10/06 06:20:23;;;;;;;25.35;12.58;;;;;;;7.69;87.42;101650.45;1684667;85;21155;-69
2021/10/06 06:22:51;;;;;;;18.87;12.50;;;;;;;7.79;87.05;101647.52;1694810;84;21546;-70
2021/10/06 06:25:18;;;;;;;21.07;12.60;;;;;;;7.88;86.66;101650.42;1684565;84;20950;-69
2021/10/06 06:27:44;;;;;;;18.05;10.72;;;;;;;7.96;86.21;101648.98;1670395;84;21023;-70
2021/10/06 06:30:11;;;;;;;22.22;12.53;;;;;;;8.06;85.82;101654.06;1710257;83;21005;-71
2021/10/06 06:32:37;;;;;;;18.42;11.73;;;;;;;8.15;85.56;101648.96;1713791;83;21069;-70
2021/10/06 06:35:05;;;;;;;19.07;13.43;;;;;;;8.26;85.23;101656.51;1695338;84;21018;-70
2021/10/06 06:37:32;;;;;;;22.50;12.75;;;;;;;8.36;84.83;101657.09;1665343;84;21014;-70
2021/10/06 06:39:58;;;;;;;17.00;11.85;;;;;;;8.43;84.15;101647.30;1695515;84;20998;-71
2021/10/06 06:42:26;;;;;;;13.62;9.80;;;;;;;8.52;84.08;101660.08;1673399;83;21046;-70
2021/10/06 06:44:52;;;;;;;14.75;10.70;;;;;;;8.63;83.76;101659.06;1731462;82;21050;-68
2021/10/06 06:47:18;;;;;;;16.10;10.50;;;;;;;8.74;83.52;101657.23;1706003;84;21005;-70
2021/10/06 06:49:45;;;;;;;17.48;10.43;;;;;;;8.86;83.08;101655.41;1681458;84;20974;-70
2021/10/06 06:52:11;;;;;;;11.88;10.25;;;;;;;8.95;82.45;101660.46;1706045;84;20991;-70
2021/10/06 06:54:38;;;;;;;21.25;9.98;;;;;;;9.04;81.97;101656.63;1680048;84;20979;-71
2021/10/06 06:57:04;;;;;;;16.60;10.80;;;;;;;9.12;81.24;101657.00;1677490;84;21064;-72
2021/10/06 06:59:32;;;;;;;13.80;9.28;;;;;;;9.21;81.00;101651.01;1678004;84;21583;-69
2021/10/06 07:01:59;;;;;;;10.88;8.08;;;;;;;9.29;80.28;101656.23;1676298;85;21530;-69
2021/10/06 07:04:25;;;;;;;10.78;8.60;;;;;;;9.38;80.01;101656.41;1700552;84;21066;-69
2021/10/06 07:06:57;;;;;;;16.40;9.13;;;;;;;9.47;79.67;101660.63;1681608;84;21085;-69
2021/10/06 07:09:24;;;;;;;10.48;8.13;;;;;;;9.54;79.23;101652.92;1705816;84;21547;-70
2021/10/06 07:11:47;;;;;;;15.40;10.03;;;;;;;9.60;78.07;101649.45;1681265;84;21052;-69
2021/10/06 07:14:14;;;;;;;20.90;9.98;;;;;;;9.64;77.88;101644.52;1703790;84;21010;-70
2021/10/06 07:16:41;;;;;;;13.30;9.68;;;;;;;9.68;77.55;101651.19;1705501;84;21120;-70
2021/10/06 07:19:07;;;;;;;17.87;9.23;;;;;;;9.76;77.44;101642.13;1681804;84;21075;-71
2021/10/06 07:21:34;;;;;;;19.67;9.48;;;;;;;9.82;76.70;101646.73;1706165;84;21988;-70
2021/10/06 07:24:00;;;;;;;14.07;9.18;;;;;;;9.89;76.46;101652.45;1689194;84;20995;-70
2021/10/06 07:26:26;;;;;;;24.37;10.65;;;;;;;9.96;75.96;101654.68;1650232;86;21037;-69
2021/10/06 07:28:53;;;;;;;12.20;8.75;;;;;;;10.02;75.73;101649.83;1656973;85;21564;-72
2021/10/06 07:31:21;;;;;;;19.55;10.15;;;;;;;10.08;75.55;101650.91;1646730;86;21537;-72
2021/10/06 07:33:50;;;;;;;17.07;9.00;;;;;;;10.16;75.54;101647.27;1666107;84;21063;-71
2021/10/06 07:36:15;;;;;;;14.75;9.40;;;;;;;10.25;75.26;101645.56;1655288;85;20990;-70
2021/10/06 07:38:41;;;;;;;9.35;8.33;;;;;;;10.35;74.98;101642.50;1655917;85;21528;-69
2021/10/06 07:41:08;;;;;;;12.68;9.78;;;;;;;10.45;73.89;101641.06;1707041;84;21018;-70
2021/10/06 07:43:35;;;;;;;9.98;8.68;;;;;;;10.53;72.89;101641.42;1641099;85;21545;-71
2021/10/06 07:46:01;;;;;;;12.82;9.50;;;;;;;10.61;72.89;101642.58;1707127;84;22026;-70
2021/10/06 07:48:30;;;;;;;11.78;9.23;;;;;;;10.70;72.67;101644.56;1677208;85;21555;-69
2021/10/06 07:50:56;;;;;;;15.00;10.25;;;;;;;10.78;72.50;101639.02;1666776;84;21076;-68
2021/10/06 07:53:23;;;;;;;11.68;8.48;;;;;;;10.88;72.38;101640.80;1690059;84;21017;-73
2021/10/06 07:55:49;;;;;;;12.93;9.05;;;;;;;10.98;71.68;101641.24;1684940;84;21038;-69
2021/10/06 07:58:16;;;;;;;13.40;9.03;;;;;;;11.07;71.46;101635.97;1706994;84;22544;-68
2021/10/06 08:00:42;;;;;;;10.43;8.55;;;;;;;11.16;71.32;101633.91;1677184;85;20988;-69
2021/10/06 08:03:09;;;;;;;14.30;8.25;;;;;;;11.24;70.33;101628.30;1704644;84;20925;-69
2021/10/06 08:05:35;;;;;;;8.90;7.97;;;;;;;11.31;69.89;101634.54;1646703;86;21055;-69
2021/10/06 08:08:02;;;;;;;13.13;8.95;;;;;;;11.41;69.48;101634.13;1651217;86;21511;-70
2021/10/06 08:10:28;;;;;;;15.63;9.53;;;;;;;11.52;68.28;101628.08;1650056;87;21126;-70
2021/10/06 08:12:55;;;;;;;10.05;8.83;;;;;;;11.63;67.78;101635.03;1670944;84;21037;-68
2021/10/06 08:15:21;;;;;;;9.53;8.30;;;;;;;11.76;67.32;101626.12;1678787;85;21008;-69
2021/10/06 08:17:47;;;;;;;10.78;7.87;;;;;;;11.86;66.03;101622.98;1678660;85;21069;-69
2021/10/06 08:20:13;;;;;;;14.43;7.65;;;;;;;11.94;65.27;101625.48;1678673;85;21063;-68
2021/10/06 08:22:40;;;;;;;9.68;8.63;;;;;;;11.97;64.69;101624.53;1657034;85;21912;-70
2021/10/06 08:25:08;;;;;;;9.95;8.05;;;;;;;12.04;64.12;101625.84;1694592;84;21000;-68
2021/10/06 08:27:36;;;;;;;18.07;9.88;;;;;;;12.10;64.06;101625.83;1690540;84;21549;-69
2021/10/06 08:30:03;;;;;;;21.07;10.58;;;;;;;12.18;63.95;101630.18;1724579;83;21527;-69
2021/10/06 08:32:30;;;;;;;19.70;9.85;;;;;;;12.23;63.76;101624.42;1680672;83;21014;-68
2021/10/06 08:34:56;;;;;;;15.05;7.80;;;;;;;12.31;63.26;101631.98;1724261;83;21864;-68
2021/10/06 08:37:22;;;;;;;14.98;8.40;;;;;;;12.41;63.04;101632.36;1703699;83;21043;-71
2021/10/06 08:39:49;;;;;;;12.10;7.80;;;;;;;12.48;62.86;101635.33;1724724;83;21542;-71
2021/10/06 08:42:16;;;;;;;9.23;6.97;;;;;;;12.55;62.56;101623.16;1724432;83;21054;-70
2021/10/06 08:44:46;;;;;;;15.55;9.85;;;;;;;12.63;61.96;101633.19;1724066;83;21380;-71
2021/10/06 08:47:14;;;;;;;13.53;8.60;;;;;;;12.74;61.20;101628.98;1703504;83;21045;-71
2021/10/06 08:49:43;;;;;;;12.90;8.00;;;;;;;12.84;60.39;101632.03;1724325;83;21010;-71
2021/10/06 08:52:10;;;;;;;11.30;6.80;;;;;;;12.92;59.42;101622.31;1724728;83;21560;-71
2021/10/06 08:54:38;;;;;;;11.73;7.47;;;;;;;12.98;58.82;101626.84;1724602;83;21011;-72
2021/10/06 08:57:04;;;;;;;9.73;7.03;;;;;;;13.05;57.52;101622.22;1724019;83;21573;-71
2021/10/06 08:59:31;;;;;;;10.25;6.85;;;;;;;13.12;56.23;101611.92;1724245;81;22071;-69
2021/10/06 09:02:13;;;;;;;13.20;7.35;;;;;;;13.19;55.99;101611.36;1722605;81;21093;-69
2021/10/06 09:04:41;;;;;;;8.43;6.00;;;;;;;13.26;55.19;101612.12;1680616;84;20921;-69
2021/10/06 09:07:08;;;;;;;23.45;6.65;;;;;;;13.32;53.45;101613.95;1655080;84;20941;-70
2021/10/06 09:09:36;;;;;;;12.07;7.75;;;;;;;13.36;53.59;101611.10;1724138;81;21098;-70
2021/10/06 09:12:15;;;;;;;17.42;6.85;;;;;;;13.43;53.49;101621.31;1697812;84;21183;-69
2021/10/06 09:14:46;;;;;;;9.00;6.80;;;;;;;13.51;53.34;101615.65;1695182;84;21048;-70
2021/10/06 09:17:17;;;;;;;12.35;5.87;;;;;;;13.59;53.14;101609.13;1724769;83;21065;-70
2021/10/06 09:19:53;;;;;;;8.55;6.20;;;;;;;13.64;52.08;101604.70;1693635;84;21527;-71
2021/10/06 09:22:27;;;;;;;6.50;5.85;;;;;;;13.67;51.86;101611.00;1695640;84;21624;-69
2021/10/06 09:24:58;;;;;;;11.05;6.10;;;;;;;13.72;52.60;101612.52;1695179;84;21841;-73
2021/10/06 09:27:29;;;;;;;18.52;7.80;;;;;;;13.80;52.98;101603.30;1697676;84;21045;-68
2021/10/06 09:30:02;;;;;;;10.88;6.03;;;;;;;13.88;52.36;101605.70;1676425;84;21042;-70
2021/10/06 09:32:35;;;;;;;13.08;7.37;;;;;;;13.94;52.67;101604.28;1658504;84;21021;-71
2021/10/06 09:35:19;;;;;;;14.23;6.30;;;;;;;14.00;52.41;101613.39;1689347;84;21010;-70
2021/10/06 09:37:52;;;;;;;12.85;8.58;;;;;;;14.07;51.51;101607.88;1692929;84;21990;-68
2021/10/06 09:40:22;;;;;;;13.98;8.60;;;;;;;14.09;51.15;101616.09;1678927;83;26720;-69
2021/10/06 09:43:00;;;;;;;11.35;6.47;;;;;;;14.09;50.79;101616.61;1672621;84;21018;-70
2021/10/06 09:45:35;;;;;;;13.60;7.15;;;;;;;14.03;50.21;101611.57;1685859;84;21019;-70
2021/10/06 09:48:15;;;;;;;8.80;5.55;;;;;;;14.00;49.80;101612.56;1648015;86;21067;-70
2021/10/06 09:50:48;;;;;;;9.70;6.20;;;;;;;14.06;49.57;101615.17;1677146;85;21106;-69
2021/10/06 09:53:17;;;;;;;11.60;6.37;;;;;;;14.13;48.66;101603.75;1679465;84;21051;-70
2021/10/06 09:55:46;;;;;;;9.28;5.75;;;;;;;14.18;46.03;101601.20;1680393;84;21057;-70
2021/10/06 09:58:13;;;;;;;10.35;6.33;;;;;;;14.25;46.34;101597.86;1705750;82;21538;-71
2021/10/06 10:00:42;;;;;;;10.55;5.15;;;;;;;14.31;46.29;101598.32;1704987;82;21021;-71
2021/10/06 10:03:09;;;;;;;9.48;5.08;;;;;;;14.37;46.34;101602.03;1691782;84;21235;-70
2021/10/06 10:05:40;;;;;;;7.92;4.03;;;;;;;14.45;46.90;101604.41;1707763;84;20995;-71
2021/10/06 10:08:07;;;;;;;7.55;4.70;;;;;;;14.49;45.60;101609.67;1719691;83;21047;-69
2021/10/06 10:10:35;;;;;;;13.38;5.65;;;;;;;14.49;45.69;101597.48;1681570;84;21540;-70
2021/10/06 10:13:03;;;;;;;13.65;5.97;;;;;;;14.48;45.69;101582.31;1687808;84;21019;-69
2021/10/06 10:15:30;;;;;;;12.28;5.65;;;;;;;14.50;45.64;101584.25;1702415;83;22382;-70
2021/10/06 10:17:59;;;;;;;12.58;4.87;;;;;;;14.52;45.45;101579.44;1685018;82;26144;-70
2021/10/06 10:20:30;;;;;;;9.60;5.60;;;;;;;14.50;44.65;101596.95;1741442;82;21004;-70
2021/10/06 10:23:03;;;;;;;18.45;5.62;;;;;;;14.46;43.86;101593.06;1704110;83;37812;-71
2021/10/06 10:25:35;;;;;;;7.62;5.10;;;;;;;14.39;43.53;101598.02;1696031;83;21080;-72
2021/10/06 10:28:08;;;;;;;6.00;4.72;;;;;;;14.30;43.08;101584.48;1686183;84;21093;-73
2021/10/06 10:30:39;;;;;;;9.10;4.20;;;;;;;14.27;43.36;101593.59;1682947;85;20994;-72
2021/10/06 10:33:06;;;;;;;7.45;4.62;;;;;;;14.19;43.83;101602.03;1707317;83;20957;-74
2021/10/06 10:35:41;;;;;;;10.10;5.15;;;;;;;14.18;44.08;101599.02;1695549;83;21033;-74
2021/10/06 10:38:13;;;;;;;11.30;5.20;;;;;;;14.19;44.52;101602.03;1711432;82;21075;-72
2021/10/06 10:40:47;;;;;;;8.83;5.67;;;;;;;14.18;44.97;101600.37;1688316;83;20998;-70
2021/10/06 10:43:27;;;;;;;6.45;4.85;;;;;;;14.20;45.09;101595.02;1687701;82;21205;-73
2021/10/06 10:46:06;;;;;;;14.63;5.45;;;;;;;14.18;44.95;101589.02;1713393;82;21099;-72
2021/10/06 10:49:01;;;;;;;16.05;4.40;;;;;;;14.13;45.11;101591.58;1713117;82;21012;-73
2021/10/06 10:51:57;;;;;;;8.78;4.17;;;;;;;14.13;44.73;101590.22;1712963;82;21054;-72
2021/10/06 10:54:39;;;;;;;9.48;4.55;;;;;;;14.10;44.34;101577.69;1707286;84;21138;-70
2021/10/06 10:57:14;;;;;;;6.55;4.50;;;;;;;14.12;44.24;101584.50;1713248;82;21507;-71
2021/10/06 10:59:42;;;;;;;6.03;4.55;;;;;;;14.22;44.13;101582.09;1733150;82;21089;-70
2021/10/06 11:02:32;;;;;;;13.22;5.97;;;;;;;14.34;44.06;101574.02;1738731;82;21003;-78
2021/10/06 11:05:04;;;;;;;9.58;4.30;;;;;;;14.57;42.74;101576.05;1737686;81;21014;-74
2021/10/06 11:07:31;;;;;;;10.32;4.60;;;;;;;14.79;40.89;101569.87;1696122;83;21073;-69
2021/10/06 11:10:01;;;;;;;12.63;4.15;;;;;;;14.98;39.60;101568.42;1697464;83;21601;-70
2021/10/06 11:12:29;;;;;;;29.00;6.15;;;;;;;15.11;39.40;101566.32;1719930;83;21017;-71
2021/10/06 11:15:16;;;;;;;25.55;5.45;;;;;;;15.27;38.68;101573.78;1718407;83;20998;-71
2021/10/06 11:18:08;;;;;;;8.15;4.75;;;;;;;15.35;37.93;101560.39;1663343;84;21547;-71
2021/10/06 11:20:47;;;;;;;14.65;5.62;;;;;;;15.34;37.77;101572.31;1679455;83;21209;-72
2021/10/06 11:23:39;;;;;;;6.42;4.70;;;;;;;15.34;37.61;101568.78;1694812;83;21097;-73